Redington Shores, Florida
Current Conditions -  °F | °C
As of 3:53 PM on Monday 24 Nov 2014 (Local Time) from KPIE Reporting Station
Clear Clear  
Wind Chill: 80°   Ceiling: Unl
Heat Index: 84°   Visibility: 10mi
Dew Point: 72°   Wind: 12mph
Humidity: 76%   Direction: 190°S
Pressure: 29.94"   Gusts: NA
Location:  27.8164°N, 82.7802°W
Report Text: KPIE 242053Z 19010KT 10SM CLR 27/22 A2994 RMK AO2 SLP137 T02670222 55000
Loading
Personal Weather Stations






























Interactive Weather Map New forecast layout! Learn more

10-Day Weather Forecast

Advertisements
Track Severe Weather on mobile